sensor_id;sensor_type;location;lat;lon;timestamp;pressure;altitude;pressure_sealevel;temperature;humidity
76374;BME280;65197;50.164;8.012;2023-04-03T00:01:03;96455.84;;;-0.04;89.64
76374;BME280;65197;50.164;8.012;2023-04-03T00:03:29;96455.00;;;-0.02;89.74
76374;BME280;65197;50.164;8.012;2023-04-03T00:05:54;96460.03;;;-0.02;90.77
76374;BME280;65197;50.164;8.012;2023-04-03T00:08:20;96468.38;;;-0.04;90.79
76374;BME280;65197;50.164;8.012;2023-04-03T00:10:46;96447.38;;;-0.18;92.32
76374;BME280;65197;50.164;8.012;2023-04-03T00:13:12;96453.22;;;-0.18;93.64
76374;BME280;65197;50.164;8.012;2023-04-03T00:15:38;96450.72;;;-0.16;93.49
76374;BME280;65197;50.164;8.012;2023-04-03T00:18:04;96458.16;;;-0.24;93.43
76374;BME280;65197;50.164;8.012;2023-04-03T00:20:30;96446.44;;;-0.28;93.61
76374;BME280;65197;50.164;8.012;2023-04-03T00:22:55;96454.00;;;-0.27;93.56
76374;BME280;65197;50.164;8.012;2023-04-03T00:25:21;96456.50;;;-0.23;93.34
76374;BME280;65197;50.164;8.012;2023-04-03T00:27:46;96453.22;;;-0.15;91.21
76374;BME280;65197;50.164;8.012;2023-04-03T00:30:15;96437.28;;;-0.28;92.54
76374;BME280;65197;50.164;8.012;2023-04-03T00:32:41;96455.69;;;-0.19;92.91
76374;BME280;65197;50.164;8.012;2023-04-03T00:35:06;96460.72;;;-0.21;93.19
76374;BME280;65197;50.164;8.012;2023-04-03T00:37:32;96432.19;;;-0.35;92.52
76374;BME280;65197;50.164;8.012;2023-04-03T00:39:58;96446.44;;;-0.31;92.56
76374;BME280;65197;50.164;8.012;2023-04-03T00:42:24;96455.66;;;-0.24;92.93
76374;BME280;65197;50.164;8.012;2023-04-03T00:47:17;96434.66;;;-0.41;93.08
76374;BME280;65197;50.164;8.012;2023-04-03T00:49:43;96459.84;;;-0.26;93.00
76374;BME280;65197;50.164;8.012;2023-04-03T00:52:16;96460.66;;;-0.27;92.93
76374;BME280;65197;50.164;8.012;2023-04-03T00:54:43;96458.16;;;-0.27;93.18
76374;BME280;65197;50.164;8.012;2023-04-03T00:57:11;96458.16;;;-0.24;92.92
76374;BME280;65197;50.164;8.012;2023-04-03T00:59:40;96456.50;;;-0.25;93.60
76374;BME280;65197;50.164;8.012;2023-04-03T01:02:07;96463.19;;;-0.27;93.44
76374;BME280;65197;50.164;8.012;2023-04-03T01:04:35;96443.03;;;-0.36;93.74
76374;BME280;65197;50.164;8.012;2023-04-03T01:07:10;96456.41;;;-0.34;94.24
76374;BME280;65197;50.164;8.012;2023-04-03T01:09:37;96447.19;;;-0.41;95.23
76374;BME280;65197;50.164;8.012;2023-04-03T01:12:37;96453.06;;;-0.36;94.78
76374;BME280;65197;50.164;8.012;2023-04-03T01:15:08;96446.34;;;-0.37;94.55
76374;BME280;65197;50.164;8.012;2023-04-03T01:17:38;96448.03;;;-0.39;94.57
76374;BME280;65197;50.164;8.012;2023-04-03T01:20:30;96452.25;;;-0.34;94.92
76374;BME280;65197;50.164;8.012;2023-04-03T01:25:43;96433.88;;;-0.33;93.55
76374;BME280;65197;50.164;8.012;2023-04-03T01:28:15;96428.84;;;-0.36;93.54
76374;BME280;65197;50.164;8.012;2023-04-03T01:36:42;96431.41;;;-0.28;93.58
76374;BME280;65197;50.164;8.012;2023-04-03T01:39:08;96441.50;;;-0.22;93.25
76374;BME280;65197;50.164;8.012;2023-04-03T01:41:33;96443.19;;;-0.18;93.53
76374;BME280;65197;50.164;8.012;2023-04-03T01:43:59;96430.59;;;-0.26;92.31
76374;BME280;65197;50.164;8.012;2023-04-03T01:46:24;96435.69;;;-0.18;92.36
76374;BME280;65197;50.164;8.012;2023-04-03T01:48:50;96403.75;;;-0.37;91.51
76374;BME280;65197;50.164;8.012;2023-04-03T01:51:15;96443.22;;;-0.15;91.97
76374;BME280;65197;50.164;8.012;2023-04-03T01:53:41;96445.72;;;-0.16;91.67
76374;BME280;65197;50.164;8.012;2023-04-03T01:56:07;96424.72;;;-0.31;92.50
76374;BME280;65197;50.164;8.012;2023-04-03T01:58:32;96443.19;;;-0.18;92.09
76374;BME280;65197;50.164;8.012;2023-04-03T02:00:57;96444.88;;;-0.17;92.25
76374;BME280;65197;50.164;8.012;2023-04-03T02:03:23;96447.34;;;-0.21;91.77
76374;BME280;65197;50.164;8.012;2023-04-03T02:05:49;96432.22;;;-0.29;91.53
76374;BME280;65197;50.164;8.012;2023-04-03T02:08:15;96451.53;;;-0.19;91.84
76374;BME280;65197;50.164;8.012;2023-04-03T02:10:43;96440.66;;;-0.21;91.55
76374;BME280;65197;50.164;8.012;2023-04-03T02:13:08;96444.00;;;-0.20;91.92
76374;BME280;65197;50.164;8.012;2023-04-03T02:15:38;96447.34;;;-0.20;93.01
76374;BME280;65197;50.164;8.012;2023-04-03T02:18:03;96441.47;;;-0.25;92.94
76374;BME280;65197;50.164;8.012;2023-04-03T02:20:28;96438.13;;;-0.27;92.75
76374;BME280;65197;50.164;8.012;2023-04-03T02:22:54;96436.41;;;-0.31;93.77
76374;BME280;65197;50.164;8.012;2023-04-03T02:25:19;96426.31;;;-0.40;92.87
76374;BME280;65197;50.164;8.012;2023-04-03T02:27:45;96436.44;;;-0.25;92.74
76374;BME280;65197;50.164;8.012;2023-04-03T02:30:11;96435.66;;;-0.22;92.92
76374;BME280;65197;50.164;8.012;2023-04-03T02:32:36;96433.94;;;-0.27;92.42
76374;BME280;65197;50.164;8.012;2023-04-03T02:35:02;96439.00;;;-0.20;92.93
76374;BME280;65197;50.164;8.012;2023-04-03T02:37:27;96432.22;;;-0.31;92.63
76374;BME280;65197;50.164;8.012;2023-04-03T02:39:53;96430.50;;;-0.36;94.09
76374;BME280;65197;50.164;8.012;2023-04-03T02:42:18;96426.34;;;-0.34;93.17
76374;BME280;65197;50.164;8.012;2023-04-03T02:44:43;96432.19;;;-0.34;93.55
76374;BME280;65197;50.164;8.012;2023-04-03T02:47:09;96421.28;;;-0.39;92.94
76374;BME280;65197;50.164;8.012;2023-04-03T02:49:35;96429.69;;;-0.35;93.69
76374;BME280;65197;50.164;8.012;2023-04-03T02:52:00;96440.59;;;-0.30;94.22
76374;BME280;65197;50.164;8.012;2023-04-03T02:54:25;96436.44;;;-0.25;94.25
76374;BME280;65197;50.164;8.012;2023-04-03T02:56:53;96436.44;;;-0.25;94.44
76374;BME280;65197;50.164;8.012;2023-04-03T02:59:19;96441.50;;;-0.22;94.09
76374;BME280;65197;50.164;8.012;2023-04-03T03:01:45;96440.66;;;-0.22;94.28
76374;BME280;65197;50.164;8.012;2023-04-03T03:04:10;96437.25;;;-0.29;94.43
76374;BME280;65197;50.164;8.012;2023-04-03T03:06:36;96433.06;;;-0.30;94.00
76374;BME280;65197;50.164;8.012;2023-04-03T03:09:01;96443.97;;;-0.25;94.68
76374;BME280;65197;50.164;8.012;2023-04-03T03:11:27;96446.47;;;-0.25;94.72
76374;BME280;65197;50.164;8.012;2023-04-03T03:13:52;96448.13;;;-0.27;95.08
76374;BME280;65197;50.164;8.012;2023-04-03T03:16:18;96448.94;;;-0.28;95.47
76374;BME280;65197;50.164;8.012;2023-04-03T03:18:43;96436.38;;;-0.34;95.55
76374;BME280;65197;50.164;8.012;2023-04-03T03:21:10;96445.50;;;-0.38;96.26
76374;BME280;65197;50.164;8.012;2023-04-03T03:23:35;96458.09;;;-0.33;97.00
76374;BME280;65197;50.164;8.012;2023-04-03T03:26:05;96451.34;;;-0.40;96.96
76374;BME280;65197;50.164;8.012;2023-04-03T03:28:31;96442.13;;;-0.44;98.69
76374;BME280;65197;50.164;8.012;2023-04-03T03:30:57;96439.56;;;-0.50;98.16
76374;BME280;65197;50.164;8.012;2023-04-03T03:33:23;96446.28;;;-0.46;98.68
76374;BME280;65197;50.164;8.012;2023-04-03T03:35:49;96437.06;;;-0.50;99.28
76374;BME280;65197;50.164;8.012;2023-04-03T03:38:14;96453.00;;;-0.42;99.71
76374;BME280;65197;50.164;8.012;2023-04-03T03:40:40;96442.09;;;-0.49;100.00
76374;BME280;65197;50.164;8.012;2023-04-03T03:43:05;96452.09;;;-0.47;99.75
76374;BME280;65197;50.164;8.012;2023-04-03T03:45:31;96431.16;;;-0.56;100.00
76374;BME280;65197;50.164;8.012;2023-04-03T03:47:56;96436.94;;;-0.61;100.00
76374;BME280;65197;50.164;8.012;2023-04-03T03:50:23;96446.13;;;-0.62;100.00
76374;BME280;65197;50.164;8.012;2023-04-03T03:52:48;96431.84;;;-0.72;100.00
76374;BME280;65197;50.164;8.012;2023-04-03T03:55:13;96439.41;;;-0.66;100.00
76374;BME280;65197;50.164;8.012;2023-04-03T03:57:39;96441.03;;;-0.71;100.00
76374;BME280;65197;50.164;8.012;2023-04-03T04:00:05;96458.56;;;-0.69;100.00
76374;BME280;65197;50.164;8.012;2023-04-03T04:02:32;96447.66;;;-0.76;100.00
76374;BME280;65197;50.164;8.012;2023-04-03T04:04:58;96451.00;;;-0.77;100.00
76374;BME280;65197;50.164;8.012;2023-04-03T04:07:23;96448.41;;;-0.85;100.00
76374;BME280;65197;50.164;8.012;2023-04-03T04:09:48;96449.22;;;-0.86;100.00
76374;BME280;65197;50.164;8.012;2023-04-03T04:12:14;96435.78;;;-0.95;100.00
76374;BME280;65197;50.164;8.012;2023-04-03T04:14:39;96459.19;;;-0.90;100.00
76374;BME280;65197;50.164;8.012;2023-04-03T04:17:05;96443.28;;;-0.97;100.00
76374;BME280;65197;50.164;8.012;2023-04-03T04:19:30;96460.81;;;-0.95;100.00
76374;BME280;65197;50.164;8.012;2023-04-03T04:21:56;96444.00;;;-1.06;100.00
76374;BME280;65197;50.164;8.012;2023-04-03T04:24:21;96446.47;;;-1.09;100.00
76374;BME280;65197;50.164;8.012;2023-04-03T04:26:48;96457.31;;;-1.10;100.00
76374;BME280;65197;50.164;8.012;2023-04-03T04:29:13;96450.53;;;-1.17;100.00
76374;BME280;65197;50.164;8.012;2023-04-03T04:31:39;96438.78;;;-1.21;100.00
76374;BME280;65197;50.164;8.012;2023-04-03T04:34:04;96450.50;;;-1.20;100.00
76374;BME280;65197;50.164;8.012;2023-04-03T04:36:30;96432.75;;;-1.38;100.00
76374;BME280;65197;50.164;8.012;2023-04-03T04:38:55;96455.41;;;-1.26;100.00
76374;BME280;65197;50.164;8.012;2023-04-03T04:41:22;96457.09;;;-1.25;100.00
76374;BME280;65197;50.164;8.012;2023-04-03T04:43:52;96460.41;;;-1.29;100.00
76374;BME280;65197;50.164;8.012;2023-04-03T04:46:17;96458.75;;;-1.27;100.00
76374;BME280;65197;50.164;8.012;2023-04-03T04:48:43;96460.38;;;-1.31;100.00
76374;BME280;65197;50.164;8.012;2023-04-03T04:51:09;96459.47;;;-1.37;100.00
76374;BME280;65197;50.164;8.012;2023-04-03T04:53:35;96475.28;;;-1.38;100.00
76374;BME280;65197;50.164;8.012;2023-04-03T04:56:00;96459.34;;;-1.45;100.00
76374;BME280;65197;50.164;8.012;2023-04-03T04:58:26;96471.91;;;-1.40;100.00
76374;BME280;65197;50.164;8.012;2023-04-03T05:01:05;96461.06;;;-1.41;100.00
76374;BME280;65197;50.164;8.012;2023-04-03T05:03:30;96455.91;;;-1.53;100.00
76374;BME280;65197;50.164;8.012;2023-04-03T05:05:56;96464.28;;;-1.48;100.00
76374;BME280;65197;50.164;8.012;2023-04-03T05:08:22;96463.47;;;-1.48;100.00
76374;BME280;65197;50.164;8.012;2023-04-03T05:10:47;96470.19;;;-1.44;100.00
76374;BME280;65197;50.164;8.012;2023-04-03T05:13:13;96476.78;;;-1.49;100.00
76374;BME280;65197;50.164;8.012;2023-04-03T05:15:38;96469.22;;;-1.56;100.00
76374;BME280;65197;50.164;8.012;2023-04-03T05:18:04;96480.13;;;-1.50;100.00
76374;BME280;65197;50.164;8.012;2023-04-03T05:20:30;96485.06;;;-1.57;100.00
76374;BME280;65197;50.164;8.012;2023-04-03T05:22:56;96474.03;;;-1.68;100.00
76374;BME280;65197;50.164;8.012;2023-04-03T05:25:21;96481.59;;;-1.65;100.00
76374;BME280;65197;50.164;8.012;2023-04-03T05:27:47;96484.09;;;-1.63;100.00
76374;BME280;65197;50.164;8.012;2023-04-03T05:30:12;96483.31;;;-1.61;100.00
76374;BME280;65197;50.164;8.012;2023-04-03T05:32:38;96494.91;;;-1.66;100.00
76374;BME280;65197;50.164;8.012;2023-04-03T05:35:04;96492.38;;;-1.67;100.00
76374;BME280;65197;50.164;8.012;2023-04-03T05:37:30;96491.59;;;-1.65;100.00
76374;BME280;65197;50.164;8.012;2023-04-03T05:39:56;96491.66;;;-1.62;100.00
76374;BME280;65197;50.164;8.012;2023-04-03T05:42:21;96505.00;;;-1.60;100.00
76374;BME280;65197;50.164;8.012;2023-04-03T05:44:47;96488.34;;;-1.58;100.00
76374;BME280;65197;50.164;8.012;2023-04-03T05:47:12;96506.69;;;-1.59;100.00
76374;BME280;65197;50.164;8.012;2023-04-03T05:49:38;96506.66;;;-1.62;100.00
76374;BME280;65197;50.164;8.012;2023-04-03T05:52:09;96514.16;;;-1.62;100.00
76374;BME280;65197;50.164;8.012;2023-04-03T05:54:36;96501.66;;;-1.62;100.00
76374;BME280;65197;50.164;8.012;2023-04-03T05:57:01;96519.28;;;-1.52;100.00
76374;BME280;65197;50.164;8.012;2023-04-03T05:59:26;96515.84;;;-1.58;100.00
76374;BME280;65197;50.164;8.012;2023-04-03T06:01:52;96518.34;;;-1.58;100.00
76374;BME280;65197;50.164;8.012;2023-04-03T06:04:17;96510.97;;;-1.50;100.00
76374;BME280;65197;50.164;8.012;2023-04-03T06:06:51;96531.91;;;-1.43;100.00
76374;BME280;65197;50.164;8.012;2023-04-03T06:09:18;96519.31;;;-1.49;100.00
76374;BME280;65197;50.164;8.012;2023-04-03T06:11:44;96523.94;;;-1.18;100.00
76374;BME280;65197;50.164;8.012;2023-04-03T06:14:10;96534.00;;;-1.12;100.00
76374;BME280;65197;50.164;8.012;2023-04-03T06:16:36;96518.22;;;-0.36;100.00
76374;BME280;65197;50.164;8.012;2023-04-03T06:19:02;96510.38;;;0.20;96.50
76374;BME280;65197;50.164;8.012;2023-04-03T06:21:27;96488.44;;;-0.03;94.94
76374;BME280;65197;50.164;8.012;2023-04-03T06:23:53;96531.03;;;-0.09;94.72
76374;BME280;65197;50.164;8.012;2023-04-03T06:26:18;96526.31;;;0.28;93.36
76374;BME280;65197;50.164;8.012;2023-04-03T06:28:43;96537.75;;;-0.02;94.74
76374;BME280;65197;50.164;8.012;2023-04-03T06:31:09;96534.88;;;-0.38;95.65
76374;BME280;65197;50.164;8.012;2023-04-03T06:33:34;96541.84;;;-0.13;96.02
76374;BME280;65197;50.164;8.012;2023-04-03T06:36:03;96527.78;;;0.03;93.97
76374;BME280;65197;50.164;8.012;2023-04-03T06:38:29;96541.81;;;-0.16;94.24
76374;BME280;65197;50.164;8.012;2023-04-03T06:40:54;96545.63;;;-0.50;93.94
76374;BME280;65197;50.164;8.012;2023-04-03T06:43:21;96548.09;;;-0.52;94.65
76374;BME280;65197;50.164;8.012;2023-04-03T06:45:47;96547.91;;;0.14;92.65
76374;BME280;65197;50.164;8.012;2023-04-03T06:48:12;96554.91;;;0.48;89.94
76374;BME280;65197;50.164;8.012;2023-04-03T06:50:38;96552.72;;;0.97;87.93
76374;BME280;65197;50.164;8.012;2023-04-03T06:53:03;96539.50;;;1.41;85.55
76374;BME280;65197;50.164;8.012;2023-04-03T06:55:29;96542.84;;;1.31;82.18
76374;BME280;65197;50.164;8.012;2023-04-03T06:57:54;96543.53;;;1.06;84.12
76374;BME280;65197;50.164;8.012;2023-04-03T07:00:20;96559.38;;;0.89;85.60
76374;BME280;65197;50.164;8.012;2023-04-03T07:02:46;96554.63;;;1.50;82.04
76374;BME280;65197;50.164;8.012;2023-04-03T07:05:12;96558.28;;;0.54;84.13
76374;BME280;65197;50.164;8.012;2023-04-03T07:07:37;96567.19;;;0.18;86.54
76374;BME280;65197;50.164;8.012;2023-04-03T07:10:04;96573.25;;;0.46;87.33
76374;BME280;65197;50.164;8.012;2023-04-03T07:12:30;96570.69;;;0.35;88.08
76374;BME280;65197;50.164;8.012;2023-04-03T07:14:56;96574.94;;;0.42;86.76
76374;BME280;65197;50.164;8.012;2023-04-03T07:17:21;96547.75;;;1.07;85.34
76374;BME280;65197;50.164;8.012;2023-04-03T07:19:46;96571.09;;;0.96;84.68
76374;BME280;65197;50.164;8.012;2023-04-03T07:22:12;96569.25;;;0.68;83.28
76374;BME280;65197;50.164;8.012;2023-04-03T07:24:38;96584.13;;;0.42;87.23
76374;BME280;65197;50.164;8.012;2023-04-03T07:27:03;96585.47;;;0.08;87.07
76374;BME280;65197;50.164;8.012;2023-04-03T07:29:29;96580.34;;;0.97;83.90
76374;BME280;65197;50.164;8.012;2023-04-03T07:31:55;96561.41;;;1.68;80.95
76374;BME280;65197;50.164;8.012;2023-04-03T07:34:21;96558.09;;;2.01;78.53
76374;BME280;65197;50.164;8.012;2023-04-03T07:36:46;96574.91;;;2.85;73.73
76374;BME280;65197;50.164;8.012;2023-04-03T07:39:12;96586.66;;;2.81;73.82
76374;BME280;65197;50.164;8.012;2023-04-03T07:41:38;96584.16;;;2.51;73.07
76374;BME280;65197;50.164;8.012;2023-04-03T07:44:03;96578.28;;;2.20;76.06
76374;BME280;65197;50.164;8.012;2023-04-03T07:46:30;96587.53;;;2.45;75.65
76374;BME280;65197;50.164;8.012;2023-04-03T07:48:56;96588.34;;;2.14;76.62
76374;BME280;65197;50.164;8.012;2023-04-03T07:51:21;96587.34;;;1.64;79.36
76374;BME280;65197;50.164;8.012;2023-04-03T07:53:47;96570.72;;;2.70;74.92
76374;BME280;65197;50.164;8.012;2023-04-03T07:56:13;96575.31;;;4.05;70.73
76374;BME280;65197;50.164;8.012;2023-04-03T07:58:39;96561.31;;;3.47;69.32
76374;BME280;65197;50.164;8.012;2023-04-03T08:01:05;96576.97;;;4.12;69.78
76374;BME280;65197;50.164;8.012;2023-04-03T08:03:31;96577.97;;;3.85;67.14
76374;BME280;65197;50.164;8.012;2023-04-03T08:06:04;96579.91;;;3.11;70.34
76374;BME280;65197;50.164;8.012;2023-04-03T08:08:30;96585.81;;;3.01;70.75
76374;BME280;65197;50.164;8.012;2023-04-03T08:10:58;96558.66;;;3.76;70.74
76374;BME280;65197;50.164;8.012;2023-04-03T08:13:24;96579.44;;;4.20;68.49
76374;BME280;65197;50.164;8.012;2023-04-03T08:15:49;96560.91;;;4.25;68.88
76374;BME280;65197;50.164;8.012;2023-04-03T08:18:16;96583.16;;;3.48;67.88
76374;BME280;65197;50.164;8.012;2023-04-03T08:20:42;96583.94;;;3.66;68.38
76374;BME280;65197;50.164;8.012;2023-04-03T08:23:08;96582.25;;;3.60;68.88
76374;BME280;65197;50.164;8.012;2023-04-03T08:25:40;96583.00;;;3.85;68.45
76374;BME280;65197;50.164;8.012;2023-04-03T08:28:07;96561.28;;;3.56;69.63
76374;BME280;65197;50.164;8.012;2023-04-03T08:30:32;96581.75;;;4.53;66.44
76374;BME280;65197;50.164;8.012;2023-04-03T08:33:00;96577.25;;;3.62;68.09
76374;BME280;65197;50.164;8.012;2023-04-03T08:35:26;96573.25;;;2.66;71.14
76374;BME280;65197;50.164;8.012;2023-04-03T08:37:51;96596.75;;;2.89;70.96
76374;BME280;65197;50.164;8.012;2023-04-03T08:40:17;96584.13;;;2.91;73.44
76374;BME280;65197;50.164;8.012;2023-04-03T08:47:53;96597.56;;;2.30;72.53
76374;BME280;65197;50.164;8.012;2023-04-03T08:50:26;96594.19;;;3.11;70.35
76374;BME280;65197;50.164;8.012;2023-04-03T08:52:56;96596.63;;;1.82;74.60
76374;BME280;65197;50.164;8.012;2023-04-03T08:55:26;96581.63;;;2.77;74.58
76374;BME280;65197;50.164;8.012;2023-04-03T08:58:21;96582.50;;;2.68;72.04
76374;BME280;65197;50.164;8.012;2023-04-03T09:00:48;96604.19;;;1.84;74.98
76374;BME280;65197;50.164;8.012;2023-04-03T09:03:17;96602.63;;;2.36;75.83
76374;BME280;65197;50.164;8.012;2023-04-03T09:05:51;96595.91;;;2.93;71.29
76374;BME280;65197;50.164;8.012;2023-04-03T09:08:50;96604.28;;;2.17;76.32
76374;BME280;65197;50.164;8.012;2023-04-03T09:16:59;96612.69;;;3.06;68.93
76374;BME280;65197;50.164;8.012;2023-04-03T09:21:56;96597.09;;;4.23;66.92
76374;BME280;65197;50.164;8.012;2023-04-03T09:24:22;96601.72;;;3.29;69.78
76374;BME280;65197;50.164;8.012;2023-04-03T09:26:53;96600.13;;;2.61;71.00
76374;BME280;65197;50.164;8.012;2023-04-03T09:29:23;96595.09;;;2.54;68.29
76374;BME280;65197;50.164;8.012;2023-04-03T09:31:54;96589.22;;;2.74;65.12
76374;BME280;65197;50.164;8.012;2023-04-03T09:34:27;96603.38;;;1.98;65.50
76374;BME280;65197;50.164;8.012;2023-04-03T09:36:57;96603.44;;;2.20;65.20
76374;BME280;65197;50.164;8.012;2023-04-03T09:39:28;96588.34;;;2.79;60.98
76374;BME280;65197;50.164;8.012;2023-04-03T09:42:10;96586.69;;;2.65;62.29
76374;BME280;65197;50.164;8.012;2023-04-03T09:44:40;96577.41;;;3.02;60.86
76374;BME280;65197;50.164;8.012;2023-04-03T09:47:26;96589.97;;;3.20;59.48
76374;BME280;65197;50.164;8.012;2023-04-03T09:52:49;96562.28;;;3.02;60.75
76374;BME280;65197;50.164;8.012;2023-04-03T09:55:21;96584.84;;;3.49;61.08
76374;BME280;65197;50.164;8.012;2023-04-03T09:57:53;96587.00;;;4.20;62.08
76374;BME280;65197;50.164;8.012;2023-04-03T10:00:24;96565.94;;;4.24;60.32
76374;BME280;65197;50.164;8.012;2023-04-03T10:02:54;96589.09;;;3.27;57.52
76374;BME280;65197;50.164;8.012;2023-04-03T10:05:38;96589.94;;;3.36;59.75
76374;BME280;65197;50.164;8.012;2023-04-03T10:08:20;96586.56;;;3.38;59.94
76374;BME280;65197;50.164;8.012;2023-04-03T10:10:48;96584.16;;;2.83;61.03
76374;BME280;65197;50.164;8.012;2023-04-03T10:13:29;96567.84;;;3.91;60.01
76374;BME280;65197;50.164;8.012;2023-04-03T10:16:07;96573.22;;;2.99;59.80
76374;BME280;65197;50.164;8.012;2023-04-03T10:18:47;96593.25;;;3.45;60.00
76374;BME280;65197;50.164;8.012;2023-04-03T10:24:18;96578.53;;;4.28;58.25
76374;BME280;65197;50.164;8.012;2023-04-03T10:32:20;96572.13;;;4.92;56.85
76374;BME280;65197;50.164;8.012;2023-04-03T10:34:53;96575.31;;;4.06;55.58
76374;BME280;65197;50.164;8.012;2023-04-03T10:37:27;96569.25;;;4.32;56.05
76374;BME280;65197;50.164;8.012;2023-04-03T10:42:53;96581.19;;;4.05;54.92
76374;BME280;65197;50.164;8.012;2023-04-03T10:45:53;96569.13;;;4.47;54.82
76374;BME280;65197;50.164;8.012;2023-04-03T10:54:07;96588.22;;;3.48;56.89
76374;BME280;65197;50.164;8.012;2023-04-03T10:56:53;96579.13;;;2.62;60.46
76374;BME280;65197;50.164;8.012;2023-04-03T10:59:32;96579.75;;;3.62;58.12
76374;BME280;65197;50.164;8.012;2023-04-03T11:02:17;96579.28;;;4.44;57.47
76374;BME280;65197;50.164;8.012;2023-04-03T11:04:59;96555.84;;;4.24;57.10
76374;BME280;65197;50.164;8.012;2023-04-03T11:07:29;96577.56;;;4.46;56.00
76374;BME280;65197;50.164;8.012;2023-04-03T11:10:04;96566.59;;;4.52;54.53
76374;BME280;65197;50.164;8.012;2023-04-03T11:12:46;96557.44;;;4.34;56.37
76374;BME280;65197;50.164;8.012;2023-04-03T11:15:16;96569.88;;;4.62;55.49
76374;BME280;65197;50.164;8.012;2023-04-03T11:17:58;96560.25;;;3.91;58.88
76374;BME280;65197;50.164;8.012;2023-04-03T11:20:29;96569.28;;;4.29;57.35
76374;BME280;65197;50.164;8.012;2023-04-03T11:23:04;96543.66;;;4.75;57.07
76374;BME280;65197;50.164;8.012;2023-04-03T11:25:32;96575.19;;;4.26;55.12
76374;BME280;65197;50.164;8.012;2023-04-03T11:28:02;96544.97;;;4.14;55.66
76374;BME280;65197;50.164;8.012;2023-04-03T11:30:52;96573.88;;;3.63;56.63
76374;BME280;65197;50.164;8.012;2023-04-03T11:33:49;96556.69;;;4.26;58.84
76374;BME280;65197;50.164;8.012;2023-04-03T11:36:26;96549.19;;;4.11;55.17
76374;BME280;65197;50.164;8.012;2023-04-03T11:38:56;96544.66;;;4.58;53.93
76374;BME280;65197;50.164;8.012;2023-04-03T11:41:30;96566.00;;;4.18;54.22
76374;BME280;65197;50.164;8.012;2023-04-03T11:44:05;96540.09;;;4.94;54.68
76374;BME280;65197;50.164;8.012;2023-04-03T11:46:51;96564.25;;;4.26;51.55
76374;BME280;65197;50.164;8.012;2023-04-03T11:49:50;96558.88;;;4.66;51.59
76374;BME280;65197;50.164;8.012;2023-04-03T12:05:54;96527.41;;;4.00;51.73
76374;BME280;65197;50.164;8.012;2023-04-03T12:08:27;96538.50;;;4.87;51.76
76374;BME280;65197;50.164;8.012;2023-04-03T12:16:43;96519.03;;;3.95;49.62
76374;BME280;65197;50.164;8.012;2023-04-03T12:26:51;96529.19;;;3.83;50.54
76374;BME280;65197;50.164;8.012;2023-04-03T12:51:14;96503.06;;;3.92;51.29
76374;BME280;65197;50.164;8.012;2023-04-03T12:53:42;96501.88;;;4.37;48.06
76374;BME280;65197;50.164;8.012;2023-04-03T12:56:25;96510.00;;;4.70;47.80
76374;BME280;65197;50.164;8.012;2023-04-03T12:58:53;96498.63;;;5.12;46.06
76374;BME280;65197;50.164;8.012;2023-04-03T13:01:21;96498.50;;;4.38;48.04
76374;BME280;65197;50.164;8.012;2023-04-03T13:03:51;96512.06;;;4.28;48.75
76374;BME280;65197;50.164;8.012;2023-04-03T13:06:21;96510.84;;;4.70;47.21
76374;BME280;65197;50.164;8.012;2023-04-03T13:08:52;96508.28;;;4.75;48.66
76374;BME280;65197;50.164;8.012;2023-04-03T13:11:20;96511.84;;;4.55;46.86
76374;BME280;65197;50.164;8.012;2023-04-03T13:14:00;96510.44;;;4.21;48.14
76374;BME280;65197;50.164;8.012;2023-04-03T13:16:27;96511.75;;;4.62;47.25
76374;BME280;65197;50.164;8.012;2023-04-03T13:18:53;96516.59;;;4.86;47.90
76374;BME280;65197;50.164;8.012;2023-04-03T13:21:25;96502.44;;;4.67;47.18
76374;BME280;65197;50.164;8.012;2023-04-03T13:23:55;96494.03;;;4.69;46.86
76374;BME280;65197;50.164;8.012;2023-04-03T13:26:27;96486.91;;;5.05;46.84
76374;BME280;65197;50.164;8.012;2023-04-03T13:28:55;96499.72;;;4.88;47.82
76374;BME280;65197;50.164;8.012;2023-04-03T13:31:26;96505.13;;;4.51;46.89
76374;BME280;65197;50.164;8.012;2023-04-03T13:34:02;96508.78;;;4.17;46.90
76374;BME280;65197;50.164;8.012;2023-04-03T13:36:34;96495.03;;;4.51;47.25
76374;BME280;65197;50.164;8.012;2023-04-03T13:41:39;96490.53;;;4.79;46.05
76374;BME280;65197;50.164;8.012;2023-04-03T13:47:14;96480.47;;;4.78;44.85
76374;BME280;65197;50.164;8.012;2023-04-03T13:49:55;96492.59;;;5.24;44.69
76374;BME280;65197;50.164;8.012;2023-04-03T13:52:52;96487.75;;;4.18;45.16
76374;BME280;65197;50.164;8.012;2023-04-03T13:55:54;96486.91;;;4.16;45.81
76374;BME280;65197;50.164;8.012;2023-04-03T13:58:26;96481.97;;;4.00;44.86
76374;BME280;65197;50.164;8.012;2023-04-03T14:04:13;96485.19;;;4.21;44.71
76374;BME280;65197;50.164;8.012;2023-04-03T14:06:40;96475.38;;;3.84;45.87
76374;BME280;65197;50.164;8.012;2023-04-03T14:09:05;96476.00;;;4.14;46.89
76374;BME280;65197;50.164;8.012;2023-04-03T14:11:31;96477.06;;;4.80;47.73
76374;BME280;65197;50.164;8.012;2023-04-03T14:14:00;96478.88;;;4.68;47.49
76374;BME280;65197;50.164;8.012;2023-04-03T14:16:29;96483.19;;;4.56;45.35
76374;BME280;65197;50.164;8.012;2023-04-03T14:18:55;96471.34;;;4.62;44.83
76374;BME280;65197;50.164;8.012;2023-04-03T14:21:22;96460.31;;;4.70;45.16
76374;BME280;65197;50.164;8.012;2023-04-03T14:23:47;96457.47;;;4.15;45.23
76374;BME280;65197;50.164;8.012;2023-04-03T14:26:16;96468.56;;;3.92;46.27
76374;BME280;65197;50.164;8.012;2023-04-03T14:28:43;96465.16;;;4.02;47.18
76374;BME280;65197;50.164;8.012;2023-04-03T14:31:10;96463.44;;;4.04;46.43
76374;BME280;65197;50.164;8.012;2023-04-03T14:33:36;96469.16;;;4.26;46.07
76374;BME280;65197;50.164;8.012;2023-04-03T14:36:12;96461.72;;;4.09;46.42
76374;BME280;65197;50.164;8.012;2023-04-03T14:38:38;96458.44;;;3.98;46.94
76374;BME280;65197;50.164;8.012;2023-04-03T14:41:03;96454.31;;;3.83;45.58
76374;BME280;65197;50.164;8.012;2023-04-03T14:43:29;96432.53;;;3.76;45.07
76374;BME280;65197;50.164;8.012;2023-04-03T14:45:54;96441.84;;;3.64;46.51
76374;BME280;65197;50.164;8.012;2023-04-03T14:48:23;96449.50;;;3.53;46.45
76374;BME280;65197;50.164;8.012;2023-04-03T14:50:50;96452.84;;;3.55;46.25
76374;BME280;65197;50.164;8.012;2023-04-03T14:53:17;96468.84;;;3.46;46.77